Time,TemperatureF,DewpointF,PressureIn,WindDirection,WindDirectionDegrees,WindSpeedMPH,WindSpeedGustMPH,Humidity,HourlyPrecipIn,Conditions,Clouds,dailyrainin,SoftwareType,DateUTC
2013-09-01 11:11:00,86.0,78.0,30.00,WNW,288,0.0,4.0,78,0.00,,,0.00,,2013-09-01 15:11:00,
2013-09-01 11:23:00,87.0,78.0,29.99,WNW,291,0.0,1.0,75,0.00,,,0.00,,2013-09-01 15:23:00,
2013-09-01 11:45:00,87.0,78.0,30.00,WNW,286,0.0,1.0,74,0.00,,,0.00,,2013-09-01 15:45:00,
2013-09-01 11:55:00,88.0,79.0,30.00,WNW,291,0.0,1.0,74,0.00,,,0.00,,2013-09-01 15:55:00,
2013-09-01 12:14:00,87.0,78.0,30.01,NW,310,0.0,2.0,74,0.00,,,0.00,,2013-09-01 16:14:00,
2013-09-01 12:24:00,88.0,80.0,30.01,North,349,0.0,1.0,77,0.00,,,0.00,,2013-09-01 16:24:00,
2013-09-01 12:53:00,88.0,78.0,30.00,NNE,25,0.0,2.0,73,0.00,,,0.00,,2013-09-01 16:53:00,
2013-09-01 13:12:00,89.0,79.0,30.00,NE,49,0.0,4.0,73,0.00,,,0.00,,2013-09-01 17:12:00,
2013-09-01 13:23:00,89.0,79.0,30.00,NE,49,0.0,1.0,73,0.00,,,0.00,,2013-09-01 17:23:00,
2013-09-01 13:52:00,88.0,79.0,29.99,ENE,65,0.0,4.0,74,0.00,,,0.00,,2013-09-01 17:52:00,
2013-09-01 14:13:00,87.0,78.0,29.99,ENE,70,1.0,4.0,75,0.00,,,0.00,,2013-09-01 18:13:00,
2013-09-01 14:22:00,86.0,77.0,29.98,East,80,0.0,5.0,74,0.00,,,0.00,,2013-09-01 18:22:00,
2013-09-01 14:42:00,86.0,77.0,29.98,ESE,105,1.0,7.0,75,0.00,,,0.00,,2013-09-01 18:42:00,
2013-09-01 14:52:00,86.0,78.0,29.97,ESE,105,0.0,2.0,76,0.00,,,0.00,,2013-09-01 18:52:00,
2013-09-01 15:12:00,86.0,78.0,29.97,ESE,105,0.0,1.0,77,0.00,,,0.00,,2013-09-01 19:12:00,
2013-09-01 15:22:00,86.0,78.0,29.97,ESE,105,0.0,2.0,77,0.00,,,0.00,,2013-09-01 19:22:00,
2013-09-01 15:52:00,85.0,77.0,29.96,ESE,113,0.0,5.0,78,0.00,,,0.00,,2013-09-01 19:52:00,
2013-09-01 16:12:00,85.0,77.0,29.96,ESE,116,0.0,6.0,77,0.00,,,0.00,,2013-09-01 20:12:00,
2013-09-01 16:22:00,86.0,78.0,29.96,SE,132,1.0,7.0,77,0.00,,,0.00,,2013-09-01 20:22:00,
2013-09-01 16:42:00,86.0,77.0,29.96,SE,132,0.0,5.0,75,0.00,,,0.00,,2013-09-01 20:42:00,
2013-09-01 16:52:00,86.0,78.0,29.96,ESE,123,1.0,5.0,76,0.00,,,0.00,,2013-09-01 20:52:00,
2013-09-01 17:22:00,88.0,79.0,29.95,SE,141,0.0,10.0,75,0.00,,,0.00,,2013-09-01 21:22:00,
2013-09-01 17:55:00,85.0,77.0,29.94,SE,146,1.0,6.0,78,0.00,,,0.00,,2013-09-01 21:55:00,
2013-09-01 18:15:00,85.0,78.0,29.94,SSE,165,0.0,5.0,79,0.00,,,0.00,,2013-09-01 22:15:00,
2013-09-01 18:24:00,85.0,78.0,29.94,SSE,163,0.0,2.0,79,0.00,,,0.00,,2013-09-01 22:24:00,
2013-09-01 18:53:00,84.0,77.0,29.95,SSE,163,0.0,1.0,80,0.00,,,0.00,,2013-09-01 22:53:00,
2013-09-01 19:12:00,84.0,77.0,29.95,SSE,165,2.0,5.0,80,0.00,,,0.00,,2013-09-01 23:12:00,
2013-09-01 19:23:00,84.0,78.0,29.95,SSE,165,0.0,1.0,81,0.00,,,0.00,,2013-09-01 23:23:00,
2013-09-01 19:53:00,83.0,77.0,29.96,SSE,165,0.0,1.0,82,0.00,,,0.00,,2013-09-01 23:53:00,
2013-09-01 20:11:00,83.0,77.0,29.96,SSE,165,0.0,1.0,82,0.00,,,0.00,,2013-09-02 00:11:00,
2013-09-01 20:22:00,83.0,77.0,29.96,SSE,165,0.0,0.0,82,0.00,,,0.00,,2013-09-02 00:22:00,
2013-09-01 20:42:00,83.0,77.0,29.96,SSE,165,0.0,1.0,83,0.00,,,0.00,,2013-09-02 00:42:00,
2013-09-01 20:52:00,82.0,76.0,29.96,SSE,165,0.0,0.0,82,0.00,,,0.00,,2013-09-02 00:52:00,
2013-09-01 21:12:00,82.0,76.0,29.96,SSE,165,0.0,0.0,83,0.00,,,0.00,,2013-09-02 01:12:00,
2013-09-01 21:22:00,82.0,77.0,29.97,SSE,165,0.0,0.0,84,0.00,,,0.00,,2013-09-02 01:22:00,
2013-09-01 21:42:00,81.0,76.0,29.97,SSE,165,0.0,0.0,84,0.00,,,0.00,,2013-09-02 01:42:00,
2013-09-01 21:52:00,81.0,76.0,29.98,SSE,165,0.0,0.0,85,0.00,,,0.00,,2013-09-02 01:52:00,
2013-09-01 22:22:00,80.0,75.0,29.99,SSE,165,0.0,0.0,85,0.00,,,0.00,,2013-09-02 02:22:00,
2013-09-01 22:42:00,80.0,75.0,30.00,SSE,165,0.0,0.0,85,0.00,,,0.00,,2013-09-02 02:42:00,
2013-09-01 22:52:00,80.0,75.0,30.00,SSE,165,0.0,0.0,85,0.00,,,0.00,,2013-09-02 02:52:00,
2013-09-01 23:11:00,80.0,75.0,30.00,SSE,165,0.0,0.0,86,0.00,,,0.00,,2013-09-02 03:11:00,
2013-09-01 23:22:00,80.0,75.0,30.00,SSE,165,0.0,0.0,86,0.00,,,0.00,,2013-09-02 03:22:00,
2013-09-01 23:56:00,80.0,75.0,30.00,SSE,165,0.0,0.0,86,0.00,,,0.00,,2013-09-02 03:56:00,